sensor_id;sensor_type;location;lat;lon;timestamp;pressure;altitude;pressure_sealevel;temperature;humidity
69223;BME280;56514;51.816;-0.026;2023-03-13T00:01:51;98991.66;;;13.76;78.49
69223;BME280;56514;51.816;-0.026;2023-03-13T00:04:57;98991.50;;;13.62;79.31
69223;BME280;56514;51.816;-0.026;2023-03-13T00:08:03;98977.75;;;13.66;79.23
69223;BME280;56514;51.816;-0.026;2023-03-13T00:11:10;98974.28;;;13.74;78.48
69223;BME280;56514;51.816;-0.026;2023-03-13T00:14:19;98958.03;;;13.61;79.32
69223;BME280;56514;51.816;-0.026;2023-03-13T00:17:28;98965.47;;;13.65;79.01
69223;BME280;56514;51.816;-0.026;2023-03-13T00:20:37;98969.59;;;13.76;78.02
69223;BME280;56514;51.816;-0.026;2023-03-13T00:23:47;98964.16;;;13.69;78.42
69223;BME280;56514;51.816;-0.026;2023-03-13T00:26:58;98957.88;;;13.70;78.26
69223;BME280;56514;51.816;-0.026;2023-03-13T00:30:11;98952.06;;;13.75;78.12
69223;BME280;56514;51.816;-0.026;2023-03-13T00:33:20;98928.56;;;13.72;78.18
69223;BME280;56514;51.816;-0.026;2023-03-13T00:36:08;98915.13;;;13.73;78.20
69223;BME280;56514;51.816;-0.026;2023-03-13T00:38:53;98905.03;;;13.69;78.84
69223;BME280;56514;51.816;-0.026;2023-03-13T00:41:38;98905.88;;;13.53;79.51
69223;BME280;56514;51.816;-0.026;2023-03-13T00:44:23;98912.00;;;13.46;79.86
69223;BME280;56514;51.816;-0.026;2023-03-13T00:47:08;98896.47;;;13.59;79.45
69223;BME280;56514;51.816;-0.026;2023-03-13T00:49:53;98894.94;;;13.72;78.59
69223;BME280;56514;51.816;-0.026;2023-03-13T00:52:37;98890.13;;;13.76;78.45
69223;BME280;56514;51.816;-0.026;2023-03-13T00:55:22;98893.09;;;13.73;78.55
69223;BME280;56514;51.816;-0.026;2023-03-13T00:58:08;98875.56;;;13.72;78.95
69223;BME280;56514;51.816;-0.026;2023-03-13T01:00:54;98879.69;;;13.74;78.66
69223;BME280;56514;51.816;-0.026;2023-03-13T01:03:41;98886.31;;;13.70;78.79
69223;BME280;56514;51.816;-0.026;2023-03-13T01:06:29;98885.19;;;13.65;79.29
69223;BME280;56514;51.816;-0.026;2023-03-13T01:09:15;98868.63;;;13.71;79.12
69223;BME280;56514;51.816;-0.026;2023-03-13T01:12:00;98879.38;;;13.61;79.48
69223;BME280;56514;51.816;-0.026;2023-03-13T01:14:45;98886.50;;;13.69;79.58
69223;BME280;56514;51.816;-0.026;2023-03-13T01:17:32;98891.13;;;13.75;79.25
69223;BME280;56514;51.816;-0.026;2023-03-13T01:20:17;98892.13;;;13.66;79.49
69223;BME280;56514;51.816;-0.026;2023-03-13T01:23:02;98873.56;;;13.74;79.26
69223;BME280;56514;51.816;-0.026;2023-03-13T01:25:47;98875.91;;;13.61;79.66
69223;BME280;56514;51.816;-0.026;2023-03-13T01:28:32;98861.34;;;13.57;79.87
69223;BME280;56514;51.816;-0.026;2023-03-13T01:31:27;98862.81;;;13.67;79.12
69223;BME280;56514;51.816;-0.026;2023-03-13T01:34:12;98879.34;;;13.77;78.80
69223;BME280;56514;51.816;-0.026;2023-03-13T01:36:57;98871.56;;;13.76;78.49
69223;BME280;56514;51.816;-0.026;2023-03-13T01:39:42;98866.13;;;13.69;79.08
69223;BME280;56514;51.816;-0.026;2023-03-13T01:42:27;98875.53;;;13.88;77.89
69223;BME280;56514;51.816;-0.026;2023-03-13T01:51:48;98869.75;;;13.68;79.73
69223;BME280;56514;51.816;-0.026;2023-03-13T01:55:07;98871.78;;;13.66;80.00
69223;BME280;56514;51.816;-0.026;2023-03-13T01:57:54;98860.00;;;13.61;80.42
69223;BME280;56514;51.816;-0.026;2023-03-13T02:00:40;98859.19;;;13.52;80.60
69223;BME280;56514;51.816;-0.026;2023-03-13T02:03:27;98845.78;;;13.38;81.31
69223;BME280;56514;51.816;-0.026;2023-03-13T02:06:12;98845.97;;;13.44;80.89
69223;BME280;56514;51.816;-0.026;2023-03-13T02:09:02;98827.59;;;13.43;81.61
69223;BME280;56514;51.816;-0.026;2023-03-13T02:14:52;98805.91;;;13.47;81.10
69223;BME280;56514;51.816;-0.026;2023-03-13T02:17:38;98802.44;;;13.47;81.10
69223;BME280;56514;51.816;-0.026;2023-03-13T02:20:24;98805.38;;;13.52;80.62
69223;BME280;56514;51.816;-0.026;2023-03-13T02:23:17;98802.75;;;13.52;80.74
69223;BME280;56514;51.816;-0.026;2023-03-13T02:26:03;98784.72;;;13.47;80.69
69223;BME280;56514;51.816;-0.026;2023-03-13T02:28:51;98778.25;;;13.50;80.51
69223;BME280;56514;51.816;-0.026;2023-03-13T02:31:36;98784.69;;;13.55;80.46
69223;BME280;56514;51.816;-0.026;2023-03-13T02:34:27;98773.25;;;13.55;79.88
69223;BME280;56514;51.816;-0.026;2023-03-13T02:37:14;98746.44;;;13.58;79.99
69223;BME280;56514;51.816;-0.026;2023-03-13T02:40:03;98748.22;;;13.65;79.28
69223;BME280;56514;51.816;-0.026;2023-03-13T02:42:53;98747.53;;;13.71;78.88
69223;BME280;56514;51.816;-0.026;2023-03-13T02:45:39;98746.72;;;13.71;78.94
69223;BME280;56514;51.816;-0.026;2023-03-13T02:48:34;98744.69;;;13.81;78.07
69223;BME280;56514;51.816;-0.026;2023-03-13T02:51:39;98736.53;;;13.90;77.64
69223;BME280;56514;51.816;-0.026;2023-03-13T02:54:30;98741.66;;;13.92;77.01
69223;BME280;56514;51.816;-0.026;2023-03-13T02:57:17;98738.34;;;13.90;77.46
69223;BME280;56514;51.816;-0.026;2023-03-13T03:00:03;98722.06;;;14.01;76.72
69223;BME280;56514;51.816;-0.026;2023-03-13T03:02:52;98710.63;;;14.00;76.86
69223;BME280;56514;51.816;-0.026;2023-03-13T03:05:37;98706.56;;;13.90;77.49
69223;BME280;56514;51.816;-0.026;2023-03-13T03:08:22;98703.47;;;13.78;78.08
69223;BME280;56514;51.816;-0.026;2023-03-13T03:11:07;98693.84;;;13.77;78.65
69223;BME280;56514;51.816;-0.026;2023-03-13T03:13:53;98698.53;;;13.75;78.60
69223;BME280;56514;51.816;-0.026;2023-03-13T03:16:38;98690.75;;;13.74;78.54
69223;BME280;56514;51.816;-0.026;2023-03-13T03:19:23;98684.78;;;13.72;78.89
69223;BME280;56514;51.816;-0.026;2023-03-13T03:22:08;98666.69;;;13.83;77.85
69223;BME280;56514;51.816;-0.026;2023-03-13T03:24:53;98670.19;;;13.76;78.25
69223;BME280;56514;51.816;-0.026;2023-03-13T03:27:37;98680.16;;;13.74;78.32
69223;BME280;56514;51.816;-0.026;2023-03-13T03:30:22;98668.38;;;13.76;78.55
69223;BME280;56514;51.816;-0.026;2023-03-13T03:33:07;98684.13;;;13.70;78.47
69223;BME280;56514;51.816;-0.026;2023-03-13T03:35:58;98666.06;;;13.73;78.79
69223;BME280;56514;51.816;-0.026;2023-03-13T03:38:43;98665.22;;;13.73;78.27
69223;BME280;56514;51.816;-0.026;2023-03-13T03:41:29;98656.31;;;13.74;77.98
69223;BME280;56514;51.816;-0.026;2023-03-13T03:44:14;98652.84;;;13.65;78.25
69223;BME280;56514;51.816;-0.026;2023-03-13T03:47:00;98642.69;;;13.77;77.91
69223;BME280;56514;51.816;-0.026;2023-03-13T03:49:44;98625.97;;;13.76;77.61
69223;BME280;56514;51.816;-0.026;2023-03-13T03:52:29;98641.88;;;13.76;77.76
69223;BME280;56514;51.816;-0.026;2023-03-13T03:55:14;98649.47;;;13.79;77.54
69223;BME280;56514;51.816;-0.026;2023-03-13T03:57:59;98642.00;;;13.83;77.20
69223;BME280;56514;51.816;-0.026;2023-03-13T04:00:45;98632.34;;;13.90;76.63
69223;BME280;56514;51.816;-0.026;2023-03-13T04:03:30;98625.94;;;13.84;76.99
69223;BME280;56514;51.816;-0.026;2023-03-13T04:06:15;98617.16;;;13.84;76.90
69223;BME280;56514;51.816;-0.026;2023-03-13T04:09:00;98641.72;;;14.00;76.28
69223;BME280;56514;51.816;-0.026;2023-03-13T04:11:45;98622.00;;;14.03;75.88
69223;BME280;56514;51.816;-0.026;2023-03-13T04:14:30;98639.72;;;14.02;75.83
69223;BME280;56514;51.816;-0.026;2023-03-13T04:17:14;98649.13;;;14.05;75.82
69223;BME280;56514;51.816;-0.026;2023-03-13T04:20:00;98634.41;;;14.02;76.21
69223;BME280;56514;51.816;-0.026;2023-03-13T04:22:44;98639.94;;;13.93;77.03
69223;BME280;56514;51.816;-0.026;2023-03-13T04:25:29;98631.94;;;14.01;76.00
69223;BME280;56514;51.816;-0.026;2023-03-13T04:28:14;98636.13;;;13.95;76.11
69223;BME280;56514;51.816;-0.026;2023-03-13T04:30:59;98620.75;;;13.91;76.24
69223;BME280;56514;51.816;-0.026;2023-03-13T04:33:45;98624.03;;;13.93;75.01
69223;BME280;56514;51.816;-0.026;2023-03-13T04:36:29;98622.63;;;13.82;74.88
69223;BME280;56514;51.816;-0.026;2023-03-13T04:39:14;98631.06;;;13.86;73.85
69223;BME280;56514;51.816;-0.026;2023-03-13T04:41:59;98619.88;;;13.98;72.56
69223;BME280;56514;51.816;-0.026;2023-03-13T04:44:44;98607.91;;;14.02;72.59
69223;BME280;56514;51.816;-0.026;2023-03-13T04:47:29;98611.75;;;14.00;72.49
69223;BME280;56514;51.816;-0.026;2023-03-13T04:50:14;98612.38;;;14.02;71.87
69223;BME280;56514;51.816;-0.026;2023-03-13T04:53:00;98594.28;;;14.05;71.40
69223;BME280;56514;51.816;-0.026;2023-03-13T04:55:45;98600.25;;;14.07;70.82
69223;BME280;56514;51.816;-0.026;2023-03-13T04:58:31;98591.16;;;14.02;71.48
69223;BME280;56514;51.816;-0.026;2023-03-13T05:01:15;98605.19;;;14.10;71.00
69223;BME280;56514;51.816;-0.026;2023-03-13T05:04:01;98595.13;;;14.06;71.67
69223;BME280;56514;51.816;-0.026;2023-03-13T05:06:46;98593.06;;;14.16;71.40
69223;BME280;56514;51.816;-0.026;2023-03-13T05:09:31;98596.34;;;14.18;71.30
69223;BME280;56514;51.816;-0.026;2023-03-13T05:12:15;98578.94;;;14.01;72.43
69223;BME280;56514;51.816;-0.026;2023-03-13T05:15:00;98580.09;;;14.21;71.31
69223;BME280;56514;51.816;-0.026;2023-03-13T05:17:45;98588.41;;;14.18;71.50
69223;BME280;56514;51.816;-0.026;2023-03-13T05:20:30;98589.53;;;14.24;71.13
69223;BME280;56514;51.816;-0.026;2023-03-13T05:23:15;98584.34;;;14.07;71.98
69223;BME280;56514;51.816;-0.026;2023-03-13T05:25:59;98597.13;;;14.04;72.89
69223;BME280;56514;51.816;-0.026;2023-03-13T05:28:44;98605.09;;;14.04;72.60
69223;BME280;56514;51.816;-0.026;2023-03-13T05:31:29;98591.44;;;13.92;73.38
69223;BME280;56514;51.816;-0.026;2023-03-13T05:34:14;98588.34;;;13.81;74.21
69223;BME280;56514;51.816;-0.026;2023-03-13T05:36:59;98607.28;;;13.70;74.63
69223;BME280;56514;51.816;-0.026;2023-03-13T05:39:43;98603.22;;;13.59;74.60
69223;BME280;56514;51.816;-0.026;2023-03-13T05:42:28;98576.63;;;13.53;73.71
69223;BME280;56514;51.816;-0.026;2023-03-13T05:45:13;98592.00;;;13.57;72.81
69223;BME280;56514;51.816;-0.026;2023-03-13T05:47:58;98595.09;;;13.61;72.27
69223;BME280;56514;51.816;-0.026;2023-03-13T05:50:43;98589.69;;;13.54;72.89
69223;BME280;56514;51.816;-0.026;2023-03-13T05:53:27;98598.22;;;13.64;72.21
69223;BME280;56514;51.816;-0.026;2023-03-13T05:56:12;98582.13;;;13.74;71.70
69223;BME280;56514;51.816;-0.026;2023-03-13T05:58:57;98570.19;;;13.70;71.88
69223;BME280;56514;51.816;-0.026;2023-03-13T06:01:42;98569.66;;;13.74;71.06
69223;BME280;56514;51.816;-0.026;2023-03-13T06:04:26;98568.91;;;13.66;70.88
69223;BME280;56514;51.816;-0.026;2023-03-13T06:07:11;98555.31;;;13.69;70.31
69223;BME280;56514;51.816;-0.026;2023-03-13T06:09:56;98557.25;;;13.75;69.31
69223;BME280;56514;51.816;-0.026;2023-03-13T06:12:41;98551.94;;;13.75;69.56
69223;BME280;56514;51.816;-0.026;2023-03-13T06:15:26;98560.91;;;13.74;68.49
69223;BME280;56514;51.816;-0.026;2023-03-13T06:18:11;98554.44;;;13.76;68.14
69223;BME280;56514;51.816;-0.026;2023-03-13T06:20:58;98548.38;;;13.90;66.71
69223;BME280;56514;51.816;-0.026;2023-03-13T06:23:44;98550.91;;;13.84;67.01
69223;BME280;56514;51.816;-0.026;2023-03-13T06:26:28;98547.53;;;13.90;66.16
69223;BME280;56514;51.816;-0.026;2023-03-13T06:29:13;98547.72;;;13.88;66.25
69223;BME280;56514;51.816;-0.026;2023-03-13T06:31:58;98558.59;;;13.93;65.75
69223;BME280;56514;51.816;-0.026;2023-03-13T06:34:43;98540.34;;;13.98;64.70
69223;BME280;56514;51.816;-0.026;2023-03-13T06:37:27;98540.97;;;14.00;63.84
69223;BME280;56514;51.816;-0.026;2023-03-13T06:40:12;98560.00;;;14.04;64.28
69223;BME280;56514;51.816;-0.026;2023-03-13T06:42:57;98560.13;;;14.10;63.74
69223;BME280;56514;51.816;-0.026;2023-03-13T06:45:42;98542.75;;;14.08;63.96
69223;BME280;56514;51.816;-0.026;2023-03-13T06:48:28;98535.81;;;14.07;64.17
69223;BME280;56514;51.816;-0.026;2023-03-13T06:51:14;98540.44;;;14.05;64.60
69223;BME280;56514;51.816;-0.026;2023-03-13T06:54:01;98522.59;;;13.99;64.70
69223;BME280;56514;51.816;-0.026;2023-03-13T06:56:47;98532.59;;;13.97;64.73
69223;BME280;56514;51.816;-0.026;2023-03-13T06:59:32;98526.03;;;14.07;64.00
69223;BME280;56514;51.816;-0.026;2023-03-13T07:02:17;98510.88;;;14.16;63.85
69223;BME280;56514;51.816;-0.026;2023-03-13T07:05:02;98506.47;;;14.08;64.42
69223;BME280;56514;51.816;-0.026;2023-03-13T07:07:51;98512.00;;;13.99;65.02
69223;BME280;56514;51.816;-0.026;2023-03-13T07:10:36;98524.28;;;14.00;64.80
69223;BME280;56514;51.816;-0.026;2023-03-13T07:13:21;98493.75;;;14.18;63.79
69223;BME280;56514;51.816;-0.026;2023-03-13T07:16:09;98493.56;;;14.20;64.08
69223;BME280;56514;51.816;-0.026;2023-03-13T07:18:54;98494.91;;;14.24;64.09
69223;BME280;56514;51.816;-0.026;2023-03-13T07:21:39;98511.38;;;14.34;63.52
69223;BME280;56514;51.816;-0.026;2023-03-13T07:24:24;98497.84;;;14.44;62.14
69223;BME280;56514;51.816;-0.026;2023-03-13T07:27:09;98499.06;;;14.41;61.71
69223;BME280;56514;51.816;-0.026;2023-03-13T07:29:54;98481.41;;;14.34;62.33
69223;BME280;56514;51.816;-0.026;2023-03-13T07:32:39;98478.19;;;14.38;61.77
69223;BME280;56514;51.816;-0.026;2023-03-13T07:35:24;98466.84;;;14.44;61.21
69223;BME280;56514;51.816;-0.026;2023-03-13T07:38:09;98463.91;;;14.39;61.51
69223;BME280;56514;51.816;-0.026;2023-03-13T07:40:56;98459.78;;;14.51;60.64
69223;BME280;56514;51.816;-0.026;2023-03-13T07:43:41;98448.09;;;14.46;60.29
69223;BME280;56514;51.816;-0.026;2023-03-13T07:46:26;98459.63;;;14.38;60.78
69223;BME280;56514;51.816;-0.026;2023-03-13T07:49:11;98447.00;;;14.40;60.15
69223;BME280;56514;51.816;-0.026;2023-03-13T07:51:56;98482.41;;;14.47;59.95
69223;BME280;56514;51.816;-0.026;2023-03-13T07:54:41;98453.75;;;14.57;58.52
69223;BME280;56514;51.816;-0.026;2023-03-13T07:57:26;98445.16;;;14.55;59.34
69223;BME280;56514;51.816;-0.026;2023-03-13T08:00:10;98437.56;;;14.67;58.65
69223;BME280;56514;51.816;-0.026;2023-03-13T08:02:59;98455.66;;;14.78;58.30
69223;BME280;56514;51.816;-0.026;2023-03-13T08:05:44;98462.72;;;14.85;58.96
69223;BME280;56514;51.816;-0.026;2023-03-13T08:08:30;98450.59;;;14.97;58.09
69223;BME280;56514;51.816;-0.026;2023-03-13T08:11:18;98448.13;;;14.96;58.82
69223;BME280;56514;51.816;-0.026;2023-03-13T08:14:03;98445.56;;;15.02;57.98
69223;BME280;56514;51.816;-0.026;2023-03-13T08:16:47;98472.63;;;14.98;57.89
69223;BME280;56514;51.816;-0.026;2023-03-13T08:19:32;98440.75;;;14.77;58.46
69223;BME280;56514;51.816;-0.026;2023-03-13T08:22:17;98443.50;;;14.69;59.02
69223;BME280;56514;51.816;-0.026;2023-03-13T08:25:02;98441.56;;;14.77;58.21
69223;BME280;56514;51.816;-0.026;2023-03-13T08:27:47;98433.06;;;14.82;58.01
69223;BME280;56514;51.816;-0.026;2023-03-13T08:30:32;98427.94;;;14.80;57.66
69223;BME280;56514;51.816;-0.026;2023-03-13T08:33:17;98463.81;;;14.76;58.92
69223;BME280;56514;51.816;-0.026;2023-03-13T08:36:32;98441.09;;;14.88;57.64
69223;BME280;56514;51.816;-0.026;2023-03-13T08:39:18;98448.97;;;14.82;58.04
69223;BME280;56514;51.816;-0.026;2023-03-13T08:42:04;98465.22;;;14.93;57.80
69223;BME280;56514;51.816;-0.026;2023-03-13T08:44:51;98421.88;;;14.86;58.04
69223;BME280;56514;51.816;-0.026;2023-03-13T08:47:39;98416.38;;;14.88;58.09
69223;BME280;56514;51.816;-0.026;2023-03-13T08:50:23;98433.00;;;14.96;57.89
69223;BME280;56514;51.816;-0.026;2023-03-13T08:53:08;98412.13;;;14.93;57.99
69223;BME280;56514;51.816;-0.026;2023-03-13T08:55:53;98449.56;;;14.98;57.96
69223;BME280;56514;51.816;-0.026;2023-03-13T08:58:38;98447.28;;;14.95;57.73
69223;BME280;56514;51.816;-0.026;2023-03-13T09:01:25;98451.94;;;15.08;57.73
69223;BME280;56514;51.816;-0.026;2023-03-13T09:04:11;98420.38;;;15.19;56.60
69223;BME280;56514;51.816;-0.026;2023-03-13T09:06:55;98401.94;;;15.11;57.06
69223;BME280;56514;51.816;-0.026;2023-03-13T09:09:40;98419.72;;;14.96;57.29
69223;BME280;56514;51.816;-0.026;2023-03-13T09:12:25;98417.44;;;14.93;57.71
69223;BME280;56514;51.816;-0.026;2023-03-13T09:15:11;98431.72;;;15.07;57.38
69223;BME280;56514;51.816;-0.026;2023-03-13T09:17:55;98432.38;;;14.94;57.61
69223;BME280;56514;51.816;-0.026;2023-03-13T09:20:42;98420.28;;;14.92;57.83
69223;BME280;56514;51.816;-0.026;2023-03-13T09:23:27;98425.00;;;15.11;56.84
69223;BME280;56514;51.816;-0.026;2023-03-13T09:26:13;98416.84;;;15.12;56.64
69223;BME280;56514;51.816;-0.026;2023-03-13T09:28:58;98453.19;;;15.12;56.57
69223;BME280;56514;51.816;-0.026;2023-03-13T09:31:43;98415.13;;;15.05;57.02
69223;BME280;56514;51.816;-0.026;2023-03-13T09:34:28;98421.69;;;15.23;56.32
69223;BME280;56514;51.816;-0.026;2023-03-13T09:37:13;98434.19;;;15.29;56.86
69223;BME280;56514;51.816;-0.026;2023-03-13T09:39:59;98458.31;;;15.49;55.59
69223;BME280;56514;51.816;-0.026;2023-03-13T09:42:49;98426.38;;;15.42;55.56
69223;BME280;56514;51.816;-0.026;2023-03-13T09:45:41;98428.53;;;15.53;55.08
69223;BME280;56514;51.816;-0.026;2023-03-13T09:48:31;98458.97;;;15.36;56.62
69223;BME280;56514;51.816;-0.026;2023-03-13T09:51:25;98431.06;;;15.40;56.47
69223;BME280;56514;51.816;-0.026;2023-03-13T09:54:37;98448.66;;;15.41;56.74
69223;BME280;56514;51.816;-0.026;2023-03-13T09:57:33;98433.44;;;15.77;56.08
69223;BME280;56514;51.816;-0.026;2023-03-13T10:00:38;98443.69;;;16.08;54.56
69223;BME280;56514;51.816;-0.026;2023-03-13T10:03:29;98450.31;;;15.91;54.99
69223;BME280;56514;51.816;-0.026;2023-03-13T10:06:19;98424.81;;;16.03;54.96
69223;BME280;56514;51.816;-0.026;2023-03-13T10:09:16;98450.56;;;16.24;53.79
69223;BME280;56514;51.816;-0.026;2023-03-13T10:12:12;98405.91;;;16.19;54.07
69223;BME280;56514;51.816;-0.026;2023-03-13T10:18:16;98422.28;;;15.89;54.33
69223;BME280;56514;51.816;-0.026;2023-03-13T10:21:13;98412.16;;;15.77;54.66
69223;BME280;56514;51.816;-0.026;2023-03-13T10:24:13;98427.22;;;15.92;53.32
69223;BME280;56514;51.816;-0.026;2023-03-13T10:27:00;98466.78;;;16.08;52.87
69223;BME280;56514;51.816;-0.026;2023-03-13T10:29:45;98431.94;;;16.24;52.76
69223;BME280;56514;51.816;-0.026;2023-03-13T10:32:30;98399.22;;;16.30;52.30
69223;BME280;56514;51.816;-0.026;2023-03-13T10:35:23;98406.19;;;16.31;51.77
69223;BME280;56514;51.816;-0.026;2023-03-13T10:38:19;98413.09;;;16.53;51.98
69223;BME280;56514;51.816;-0.026;2023-03-13T10:41:34;98413.97;;;16.66;50.33
69223;BME280;56514;51.816;-0.026;2023-03-13T10:44:22;98419.91;;;16.62;51.54
69223;BME280;56514;51.816;-0.026;2023-03-13T10:47:12;98412.94;;;16.61;51.93
69223;BME280;56514;51.816;-0.026;2023-03-13T10:49:57;98415.91;;;16.92;51.26
69223;BME280;56514;51.816;-0.026;2023-03-13T10:52:45;98422.56;;;17.15;51.36
69223;BME280;56514;51.816;-0.026;2023-03-13T10:55:31;98442.03;;;17.35;50.06
69223;BME280;56514;51.816;-0.026;2023-03-13T10:58:39;98440.78;;;17.18;50.00
69223;BME280;56514;51.816;-0.026;2023-03-13T11:01:29;98440.03;;;16.77;50.73
69223;BME280;56514;51.816;-0.026;2023-03-13T11:04:34;98464.31;;;16.61;51.13
69223;BME280;56514;51.816;-0.026;2023-03-13T11:07:31;98435.97;;;16.47;51.31
69223;BME280;56514;51.816;-0.026;2023-03-13T11:10:25;98443.38;;;16.52;50.97
69223;BME280;56514;51.816;-0.026;2023-03-13T11:13:46;98441.97;;;16.56;51.49
69223;BME280;56514;51.816;-0.026;2023-03-13T11:16:30;98411.78;;;16.42;50.87
69223;BME280;56514;51.816;-0.026;2023-03-13T11:19:27;98435.84;;;16.28;51.79
69223;BME280;56514;51.816;-0.026;2023-03-13T11:33:35;98461.66;;;16.06;53.39
69223;BME280;56514;51.816;-0.026;2023-03-13T11:42:42;98444.34;;;16.17;53.53
69223;BME280;56514;51.816;-0.026;2023-03-13T11:45:59;98449.22;;;16.41;51.50
69223;BME280;56514;51.816;-0.026;2023-03-13T11:52:00;98446.63;;;16.47;50.64
69223;BME280;56514;51.816;-0.026;2023-03-13T12:01:16;98424.44;;;16.68;50.21
69223;BME280;56514;51.816;-0.026;2023-03-13T12:04:54;98426.34;;;16.93;49.44
69223;BME280;56514;51.816;-0.026;2023-03-13T12:07:26;98427.03;;;17.15;48.39
69223;BME280;56514;51.816;-0.026;2023-03-13T12:10:35;98407.16;;;17.11;47.27
69223;BME280;56514;51.816;-0.026;2023-03-13T12:13:28;98434.66;;;17.24;47.58
69223;BME280;56514;51.816;-0.026;2023-03-13T12:16:18;98421.72;;;17.28;47.99
69223;BME280;56514;51.816;-0.026;2023-03-13T12:19:04;98457.44;;;17.33;46.92
69223;BME280;56514;51.816;-0.026;2023-03-13T12:21:53;98416.38;;;17.02;48.05
69223;BME280;56514;51.816;-0.026;2023-03-13T12:25:02;98420.03;;;17.01;48.45
69223;BME280;56514;51.816;-0.026;2023-03-13T12:27:55;98414.28;;;16.91;48.78
69223;BME280;56514;51.816;-0.026;2023-03-13T12:30:45;98415.97;;;17.05;48.92
69223;BME280;56514;51.816;-0.026;2023-03-13T12:33:42;98416.81;;;17.18;48.04
69223;BME280;56514;51.816;-0.026;2023-03-13T12:39:30;98390.97;;;17.19;47.36
69223;BME280;56514;51.816;-0.026;2023-03-13T12:42:39;98401.63;;;17.06;48.03
69223;BME280;56514;51.816;-0.026;2023-03-13T12:45:28;98397.91;;;17.07;48.16
69223;BME280;56514;51.816;-0.026;2023-03-13T12:54:48;98377.72;;;17.65;45.89
69223;BME280;56514;51.816;-0.026;2023-03-13T13:00:24;98413.03;;;17.80;44.47
69223;BME280;56514;51.816;-0.026;2023-03-13T13:06:15;98373.41;;;17.77;43.74
69223;BME280;56514;51.816;-0.026;2023-03-13T13:09:12;98372.59;;;17.50;44.48
69223;BME280;56514;51.816;-0.026;2023-03-13T13:15:04;98358.66;;;17.87;44.82
69223;BME280;56514;51.816;-0.026;2023-03-13T13:18:15;98368.25;;;18.08;44.63
69223;BME280;56514;51.816;-0.026;2023-03-13T13:27:48;98349.19;;;17.26;46.64
69223;BME280;56514;51.816;-0.026;2023-03-13T13:30:33;98327.00;;;16.86;48.92
69223;BME280;56514;51.816;-0.026;2023-03-13T13:39:29;98357.25;;;18.48;43.53
69223;BME280;56514;51.816;-0.026;2023-03-13T13:48:14;98328.06;;;17.37;45.89
69223;BME280;56514;51.816;-0.026;2023-03-13T13:56:46;98298.34;;;17.14;46.06
69223;BME280;56514;51.816;-0.026;2023-03-13T13:59:44;98305.69;;;16.93;47.47
69223;BME280;56514;51.816;-0.026;2023-03-13T14:02:35;98323.91;;;16.76;48.73
69223;BME280;56514;51.816;-0.026;2023-03-13T14:08:18;98320.59;;;16.68;50.18
69223;BME280;56514;51.816;-0.026;2023-03-13T14:11:24;98308.94;;;16.69;50.35
69223;BME280;56514;51.816;-0.026;2023-03-13T14:14:19;98302.19;;;16.66;50.93
69223;BME280;56514;51.816;-0.026;2023-03-13T14:17:08;98299.28;;;16.61;51.43
69223;BME280;56514;51.816;-0.026;2023-03-13T14:19:52;98308.28;;;16.54;51.57
69223;BME280;56514;51.816;-0.026;2023-03-13T14:22:48;98293.44;;;16.38;52.36
69223;BME280;56514;51.816;-0.026;2023-03-13T14:28:28;98300.09;;;16.55;51.79
69223;BME280;56514;51.816;-0.026;2023-03-13T14:31:35;98288.22;;;16.51;51.82
69223;BME280;56514;51.816;-0.026;2023-03-13T14:34:22;98278.72;;;16.36;52.14
69223;BME280;56514;51.816;-0.026;2023-03-13T14:37:43;98277.03;;;16.22;53.37
69223;BME280;56514;51.816;-0.026;2023-03-13T14:40:30;98284.50;;;16.46;52.46
69223;BME280;56514;51.816;-0.026;2023-03-13T14:46:25;98249.44;;;16.36;52.10
69223;BME280;56514;51.816;-0.026;2023-03-13T14:49:20;98265.13;;;16.11;53.18
69223;BME280;56514;51.816;-0.026;2023-03-13T14:52:22;98264.16;;;16.25;52.25
69223;BME280;56514;51.816;-0.026;2023-03-13T14:58:24;98251.59;;;16.60;51.31
69223;BME280;56514;51.816;-0.026;2023-03-13T15:01:22;98238.66;;;17.81;48.76
69223;BME280;56514;51.816;-0.026;2023-03-13T15:04:08;98231.06;;;19.46;44.66
69223;BME280;56514;51.816;-0.026;2023-03-13T15:07:01;98222.38;;;21.35;41.14
69223;BME280;56514;51.816;-0.026;2023-03-13T15:09:48;98232.63;;;21.84;37.58
69223;BME280;56514;51.816;-0.026;2023-03-13T15:12:41;98231.19;;;20.71;40.15
69223;BME280;56514;51.816;-0.026;2023-03-13T15:15:26;98224.31;;;21.62;39.07
69223;BME280;56514;51.816;-0.026;2023-03-13T15:18:21;98216.41;;;21.56;38.49
69223;BME280;56514;51.816;-0.026;2023-03-13T15:24:11;98217.69;;;21.30;38.78
69223;BME280;56514;51.816;-0.026;2023-03-13T15:26:57;98204.44;;;20.82;40.13
69223;BME280;56514;51.816;-0.026;2023-03-13T15:29:42;98207.69;;;20.14;40.90
69223;BME280;56514;51.816;-0.026;2023-03-13T15:35:31;98210.28;;;19.66;42.11
69223;BME280;56514;51.816;-0.026;2023-03-13T15:38:19;98181.66;;;19.06;42.80
69223;BME280;56514;51.816;-0.026;2023-03-13T15:41:05;98179.75;;;18.26;44.57
69223;BME280;56514;51.816;-0.026;2023-03-13T15:43:51;98184.91;;;18.21;45.29
69223;BME280;56514;51.816;-0.026;2023-03-13T15:46:39;98188.13;;;18.98;43.05
69223;BME280;56514;51.816;-0.026;2023-03-13T15:49:24;98174.00;;;20.06;40.99
69223;BME280;56514;51.816;-0.026;2023-03-13T15:52:14;98173.63;;;20.03;40.66
69223;BME280;56514;51.816;-0.026;2023-03-13T15:55:02;98156.06;;;19.59;40.99
69223;BME280;56514;51.816;-0.026;2023-03-13T15:57:51;98165.66;;;19.67;40.95
69223;BME280;56514;51.816;-0.026;2023-03-13T16:00:36;98161.75;;;19.63;41.32
69223;BME280;56514;51.816;-0.026;2023-03-13T16:03:24;98168.84;;;19.14;42.28
69223;BME280;56514;51.816;-0.026;2023-03-13T16:06:15;98168.16;;;19.62;41.58
69223;BME280;56514;51.816;-0.026;2023-03-13T16:09:03;98144.28;;;19.24;41.10
69223;BME280;56514;51.816;-0.026;2023-03-13T16:11:52;98139.03;;;18.93;42.24
69223;BME280;56514;51.816;-0.026;2023-03-13T16:14:38;98147.72;;;19.67;40.88
69223;BME280;56514;51.816;-0.026;2023-03-13T16:17:23;98140.47;;;20.22;38.99
69223;BME280;56514;51.816;-0.026;2023-03-13T16:20:21;98148.88;;;18.92;41.83
69223;BME280;56514;51.816;-0.026;2023-03-13T16:23:07;98126.22;;;19.01;41.87
69223;BME280;56514;51.816;-0.026;2023-03-13T16:25:52;98121.13;;;18.75;42.37